Airfield :
LOGIN :

Register | Disclaimer

   EN    FR    IT 

 










Legend :    VFR   Marginal VFR   IFR   Intensive IFR   Very Intensive IFR
Visi :
Ceiling :
>= 8 km
>= 3000ft
5 to 8 km
1000 to 3000 ft
1500m to 5 km
500 to 1000 ft
800 to 1500m
200 to 500 ft
< 800m
< 200 ft
Symbols :   Thunderstorms  Fog  Heavy snow  Heavy precipitations  Wind > 20 kt
SIGMETs :     Misc.  Thunderstorms  Icing  Turbulence  Mountain Waves  Volcanic Ashes







- Airport Elevation : 90 ft
- IATA code : NTE
- Download approach charts


LFRS - Nantes

CURRENT METAR :
  • 240830Z AUTO 24008KT 210V270 9999 BKN027 BKN032 BKN039 21/14 Q1021 NOSIG

EXPIRED METARs :
  • 240800Z AUTO 23006KT 170V300 9999 FEW020 SCT025 BKN049 21/15 Q1021 NOSIG
  • 240730Z AUTO 21005KT 180V260 9999 SCT015 BKN020 BKN034 20/16 Q1021 NOSIG
  • 240700Z AUTO 22004KT 180V260 CAVOK 18/15 Q1021 NOSIG
  • 240630Z AUTO 20004KT 9999 FEW020 16/15 Q1021 NOSIG
  • 240600Z AUTO 19004KT 9999 FEW027 15/14 Q1021 BECMG 25010KT
  • 240530Z AUTO 20004KT 9999 FEW024 15/14 Q1021 NOSIG

TAF TAF LFRS
Valid from the 23 at 18:00 until the 25 at 00:00 UTC


231700Z 2318/2424 28011KT CAVOK
BECMG 2403/2405 VRB03KT BKN012
BECMG 2407/2409 BKN018
BECMG 2409/2412 26010KT SCT030
ATIS : +33 2 40 05 12 74
No reported NOTAMs for that airfield.



MET'MAP, your aeronautical weather chart ! - Copyright ORBIFLY December 2007 - Disclaimer

ORBIFLY MET'MAP TEAM :

Programming & Development : Alexandra Zaïnal
Concept & Development : Baudouin d'Aumeries
Co-Development & Prog : Marc-Olivier Méhu
Technical & hardware support : Manuel Goepfert

Contact : metmap@orbifly.com




SOURCES & CREDITS :

   NOAA